Time;durP1;ratioP1;P1;durP2;ratioP2;P2;SDS_P1;SDS_P2;PMS_P1;PMS_P2;Temp;Humidity;BMP_temperature;BMP_pressure;BME280_temperature;BME280_humidity;BME280_pressure;Samples;Min_cycle;Max_cycle;Signal;HPM_P1;HPM_P2
2022/05/15 00:02:33;;;;;;;6.95;4.97;;;22.50;74.60;;;;;;6276052;22;20038;-79
2022/05/15 00:04:59;;;;;;;4.35;3.95;;;22.40;75.20;;;;;;6276192;22;20000;-79
2022/05/15 00:07:25;;;;;;;6.60;4.30;;;22.40;74.70;;;;;;6275730;22;20008;-79
2022/05/15 00:09:51;;;;;;;4.15;3.75;;;22.60;74.20;;;;;;6248246;22;20008;-81
2022/05/15 00:12:17;;;;;;;5.80;4.75;;;22.70;73.90;;;;;;6275974;22;20452;-80
2022/05/15 00:14:44;;;;;;;6.45;4.00;;;22.70;74.20;;;;;;6276446;22;20000;-80
2022/05/15 00:17:10;;;;;;;5.38;4.30;;;22.80;73.50;;;;;;6275581;22;20410;-81
2022/05/15 00:19:35;;;;;;;5.15;4.30;;;22.90;73.40;;;;;;6248288;22;20007;-78
2022/05/15 00:22:01;;;;;;;4.45;4.05;;;22.90;73.20;;;;;;6275533;22;20075;-80
2022/05/15 00:24:28;;;;;;;4.97;4.25;;;23.00;73.40;;;;;;6276123;22;20003;-80
2022/05/15 00:26:55;;;;;;;6.75;3.95;;;23.00;73.30;;;;;;6248415;22;20438;-79
2022/05/15 00:29:21;;;;;;;4.53;3.78;;;23.00;73.30;;;;;;6248163;22;20053;-80
2022/05/15 00:31:47;;;;;;;4.32;3.92;;;23.00;73.30;;;;;;6275613;22;19996;-81
2022/05/15 00:34:12;;;;;;;5.82;4.22;;;23.10;73.40;;;;;;6249231;22;20026;-80
2022/05/15 00:36:38;;;;;;;4.88;3.97;;;23.10;73.30;;;;;;6249066;22;20031;-80
2022/05/15 00:39:07;;;;;;;5.40;3.83;;;23.10;73.30;;;;;;6277407;22;20000;-81
2022/05/15 00:41:34;;;;;;;5.80;3.95;;;23.10;73.20;;;;;;6277514;22;19999;-81
2022/05/15 00:44:00;;;;;;;4.13;3.72;;;23.20;73.00;;;;;;6277534;22;20039;-81
2022/05/15 00:46:32;;;;;;;6.43;4.15;;;23.20;72.90;;;;;;6276220;22;20003;-81
2022/05/15 00:49:04;;;;;;;4.53;3.80;;;23.10;73.00;;;;;;6276688;22;19999;-79
2022/05/15 00:51:36;;;;;;;6.47;3.85;;;23.10;72.90;;;;;;6250256;22;20607;-80
2022/05/15 00:54:13;;;;;;;6.47;4.30;;;23.10;72.80;;;;;;6250218;22;20014;-81
2022/05/15 00:56:45;;;;;;;7.03;5.22;;;23.10;73.10;;;;;;6277368;22;20006;-81
2022/05/15 00:59:13;;;;;;;5.70;4.55;;;22.90;73.10;;;;;;6277214;22;19996;-80
2022/05/15 01:01:40;;;;;;;7.70;5.45;;;22.80;73.90;;;;;;6277142;22;20414;-83
2022/05/15 01:04:06;;;;;;;11.20;6.55;;;22.70;74.10;;;;;;6277368;22;20054;-83
2022/05/15 01:06:33;;;;;;;9.15;7.03;;;22.40;75.10;;;;;;6277684;22;20003;-83
2022/05/15 01:09:01;;;;;;;6.30;5.55;;;22.20;75.90;;;;;;6277513;22;20075;-82
2022/05/15 01:11:27;;;;;;;5.57;4.90;;;22.10;76.40;;;;;;6277055;22;20019;-81
2022/05/15 01:13:53;;;;;;;9.93;6.40;;;22.10;76.20;;;;;;6277611;22;20049;-81
2022/05/15 01:16:23;;;;;;;5.35;4.53;;;22.10;76.70;;;;;;6277446;22;20061;-81
2022/05/15 01:18:48;;;;;;;4.30;3.78;;;22.00;76.50;;;;;;6277479;22;19996;-81
2022/05/15 01:21:29;;;;;;;9.32;6.53;;;22.10;76.40;;;;;;6277150;22;19995;-80
2022/05/15 01:23:56;;;;;;;7.90;6.22;;;22.00;76.30;;;;;;6277108;22;20011;-79
2022/05/15 01:26:23;;;;;;;9.77;7.00;;;21.90;76.70;;;;;;6277236;22;20004;-79
2022/05/15 01:28:48;;;;;;;12.52;7.18;;;21.70;77.50;;;;;;6275800;22;20432;-79
2022/05/15 01:31:16;;;;;;;6.32;5.10;;;21.50;78.00;;;;;;6249240;22;20000;-79
2022/05/15 01:33:45;;;;;;;10.65;6.30;;;21.50;78.50;;;;;;6277765;22;20003;-81
2022/05/15 01:36:10;;;;;;;7.63;6.05;;;21.40;78.60;;;;;;6276887;22;20053;-82
2022/05/15 01:38:36;;;;;;;8.93;6.50;;;21.50;78.50;;;;;;6277195;22;20000;-82
2022/05/15 01:41:02;;;;;;;9.73;7.28;;;21.40;79.10;;;;;;6276939;22;20407;-82
2022/05/15 01:43:28;;;;;;;10.15;6.72;;;21.20;80.00;;;;;;6277090;22;20019;-82
2022/05/15 01:45:53;;;;;;;11.00;7.32;;;21.20;80.00;;;;;;6277363;22;20430;-82
2022/05/15 01:48:19;;;;;;;6.47;4.90;;;21.10;80.30;;;;;;6276765;22;20003;-81
2022/05/15 01:50:45;;;;;;;9.00;6.95;;;21.20;80.10;;;;;;6276181;22;20046;-81
2022/05/15 01:53:10;;;;;;;5.82;5.22;;;21.00;80.50;;;;;;6277106;22;20039;-81
2022/05/15 01:55:36;;;;;;;10.90;6.88;;;21.10;80.40;;;;;;6277057;22;20061;-80
2022/05/15 01:58:02;;;;;;;8.85;6.65;;;21.10;80.10;;;;;;6248929;22;20007;-80
2022/05/15 02:00:28;;;;;;;6.32;5.60;;;21.10;80.30;;;;;;6276855;22;20071;-80
2022/05/15 02:02:54;;;;;;;10.88;7.00;;;21.10;80.20;;;;;;6277189;22;19996;-80
2022/05/15 02:05:20;;;;;;;6.97;4.63;;;21.20;80.00;;;;;;6276817;22;20008;-81
2022/05/15 02:07:48;;;;;;;5.18;4.68;;;21.20;79.90;;;;;;6276732;22;20322;-81
2022/05/15 02:10:13;;;;;;;5.18;4.07;;;21.30;79.00;;;;;;6276794;22;20081;-81
2022/05/15 02:12:39;;;;;;;8.02;6.45;;;21.50;78.70;;;;;;6249613;22;20004;-82
2022/05/15 02:15:06;;;;;;;5.45;4.55;;;21.40;78.80;;;;;;6248718;22;20015;-82
2022/05/15 02:17:32;;;;;;;8.40;5.40;;;21.50;78.60;;;;;;6275835;22;19996;-83
2022/05/15 02:19:59;;;;;;;5.38;4.50;;;21.40;78.70;;;;;;6276569;22;20007;-81
2022/05/15 02:22:25;;;;;;;13.25;6.07;;;21.40;78.70;;;;;;6276676;22;19996;-81
2022/05/15 02:24:51;;;;;;;7.65;5.68;;;21.30;79.20;;;;;;6276723;22;20000;-81
2022/05/15 02:27:17;;;;;;;4.35;3.95;;;21.30;79.20;;;;;;6276264;22;20010;-81
2022/05/15 02:29:44;;;;;;;5.63;5.05;;;21.30;79.00;;;;;;6276501;22;20000;-81
2022/05/15 02:32:10;;;;;;;6.63;4.40;;;21.30;79.30;;;;;;6277106;22;20004;-81
2022/05/15 02:34:35;;;;;;;5.22;4.28;;;21.40;79.30;;;;;;6276480;22;20008;-81
2022/05/15 02:37:01;;;;;;;5.60;3.90;;;21.50;78.20;;;;;;6276533;22;20015;-81
2022/05/15 02:39:27;;;;;;;5.43;4.00;;;21.70;77.80;;;;;;6276606;22;20071;-81
2022/05/15 02:41:53;;;;;;;6.60;4.22;;;21.80;77.50;;;;;;6250198;22;20011;-82
2022/05/15 02:44:18;;;;;;;4.93;4.05;;;21.90;77.30;;;;;;6276239;22;20050;-83
2022/05/15 02:46:44;;;;;;;4.63;4.03;;;22.00;76.90;;;;;;6276986;22;20006;-83
2022/05/15 02:51:54;;;;;;;4.38;3.95;;;22.10;76.50;;;;;;6276792;22;20369;-82
2022/05/15 02:54:20;;;;;;;5.18;3.95;;;22.10;76.30;;;;;;6276105;22;20000;-82
2022/05/15 02:56:46;;;;;;;3.72;3.40;;;22.10;76.00;;;;;;6276829;22;20068;-82
2022/05/15 02:59:12;;;;;;;5.68;4.13;;;22.10;75.90;;;;;;6275906;22;19999;-82
2022/05/15 03:01:38;;;;;;;4.93;3.80;;;22.20;76.00;;;;;;6276501;22;20071;-80
2022/05/15 03:04:04;;;;;;;4.18;3.60;;;22.20;75.90;;;;;;6248835;22;20004;-82
2022/05/15 03:06:31;;;;;;;5.30;3.63;;;22.20;76.00;;;;;;6276644;22;20309;-82
2022/05/15 03:08:57;;;;;;;4.88;3.47;;;22.20;75.90;;;;;;6276089;22;20003;-82
2022/05/15 03:11:23;;;;;;;5.28;3.80;;;22.20;75.90;;;;;;6249663;22;20081;-82
2022/05/15 03:13:49;;;;;;;4.03;3.63;;;22.20;75.90;;;;;;6276494;22;20440;-80
2022/05/15 03:16:17;;;;;;;7.68;4.18;;;22.20;75.90;;;;;;6276338;22;20003;-80
2022/05/15 03:18:49;;;;;;;6.63;4.30;;;22.20;76.00;;;;;;6274866;22;20467;-82
2022/05/15 03:21:28;;;;;;;4.95;3.45;;;22.10;75.80;;;;;;6276310;22;19995;-81
2022/05/15 03:23:56;;;;;;;5.93;4.63;;;22.20;75.90;;;;;;6276141;22;19999;-81
2022/05/15 03:26:23;;;;;;;4.82;3.95;;;22.10;76.00;;;;;;6276726;22;20075;-80
2022/05/15 03:28:49;;;;;;;3.30;3.00;;;22.10;75.80;;;;;;6275294;22;20004;-81
2022/05/15 03:31:14;;;;;;;4.65;3.72;;;22.10;75.90;;;;;;6276387;22;20079;-81
2022/05/15 03:33:40;;;;;;;5.95;4.10;;;22.10;75.80;;;;;;6276210;22;20000;-80
2022/05/15 03:36:10;;;;;;;6.03;3.80;;;22.10;75.80;;;;;;6276398;22;20038;-81
2022/05/15 03:38:38;;;;;;;4.72;3.60;;;22.10;75.90;;;;;;6275905;22;20057;-81
2022/05/15 03:41:03;;;;;;;6.03;4.47;;;22.10;76.00;;;;;;6276135;22;20043;-81
2022/05/15 03:43:29;;;;;;;7.00;3.80;;;22.00;76.00;;;;;;6275346;22;20022;-81
2022/05/15 03:45:55;;;;;;;3.97;3.53;;;22.00;76.10;;;;;;6276626;22;20035;-81
2022/05/15 03:48:20;;;;;;;4.72;3.65;;;22.00;76.10;;;;;;6248016;22;20360;-81
2022/05/15 03:50:46;;;;;;;4.82;3.88;;;21.90;76.30;;;;;;6276371;22;20081;-82
2022/05/15 03:53:12;;;;;;;5.22;4.50;;;21.90;76.60;;;;;;6276531;22;20011;-82
2022/05/15 03:55:38;;;;;;;5.28;3.58;;;21.70;77.20;;;;;;6276057;22;19999;-79
2022/05/15 03:58:03;;;;;;;4.35;3.53;;;21.60;77.70;;;;;;6274892;22;20009;-81
2022/05/15 04:00:29;;;;;;;6.18;4.18;;;21.60;77.20;;;;;;6275873;22;20418;-81
2022/05/15 04:02:55;;;;;;;6.38;4.10;;;21.60;77.50;;;;;;6274903;22;20022;-81
2022/05/15 04:05:21;;;;;;;4.80;4.05;;;21.70;77.40;;;;;;6275530;22;20075;-81
2022/05/15 04:07:50;;;;;;;3.95;3.55;;;21.70;77.50;;;;;;6274523;22;20010;-80
2022/05/15 04:10:18;;;;;;;5.57;3.90;;;21.70;77.20;;;;;;6275565;22;20038;-80
2022/05/15 04:12:44;;;;;;;4.57;4.15;;;21.80;77.40;;;;;;6276375;22;20031;-80
2022/05/15 04:15:11;;;;;;;5.53;3.88;;;21.70;77.60;;;;;;6277446;22;20330;-80
2022/05/15 04:17:45;;;;;;;5.28;3.63;;;21.70;77.50;;;;;;6276311;22;20459;-82
2022/05/15 04:20:13;;;;;;;5.70;4.43;;;21.60;77.70;;;;;;6277511;22;20079;-81
2022/05/15 04:22:38;;;;;;;9.93;5.20;;;21.60;77.50;;;;;;6277219;22;20089;-80
2022/05/15 04:25:05;;;;;;;7.57;5.20;;;21.70;78.10;;;;;;6277861;22;20430;-81
2022/05/15 04:27:31;;;;;;;5.07;4.50;;;21.50;78.60;;;;;;6276832;22;20011;-81
2022/05/15 04:29:57;;;;;;;4.20;3.80;;;21.40;78.80;;;;;;6277861;22;20003;-82
2022/05/15 04:32:22;;;;;;;4.40;3.55;;;21.50;78.30;;;;;;6277529;22;20074;-80
2022/05/15 04:34:48;;;;;;;6.63;4.47;;;21.60;78.10;;;;;;6278002;22;20087;-79
2022/05/15 04:37:14;;;;;;;5.18;3.80;;;21.70;78.50;;;;;;6277498;22;20000;-81
2022/05/15 04:39:39;;;;;;;5.28;4.35;;;21.60;78.30;;;;;;6277126;22;19999;-81
2022/05/15 04:42:06;;;;;;;4.72;4.00;;;21.70;78.00;;;;;;6277567;22;20011;-81
2022/05/15 04:44:31;;;;;;;5.78;4.68;;;21.70;78.00;;;;;;6277599;22;20008;-80
2022/05/15 04:46:57;;;;;;;5.35;4.85;;;21.70;78.30;;;;;;6276877;22;20011;-80
2022/05/15 04:49:23;;;;;;;5.95;5.35;;;21.60;78.70;;;;;;6276351;22;20023;-81
2022/05/15 04:51:48;;;;;;;5.03;4.00;;;21.60;78.60;;;;;;6276713;22;19996;-83
2022/05/15 04:54:14;;;;;;;4.47;4.07;;;21.70;78.40;;;;;;6277483;22;19996;-83
2022/05/15 04:56:40;;;;;;;5.50;4.35;;;21.60;78.40;;;;;;6276940;22;20330;-83
2022/05/15 04:59:05;;;;;;;4.95;4.15;;;21.70;78.50;;;;;;6277748;22;20011;-82
2022/05/15 05:01:31;;;;;;;4.72;3.92;;;21.70;78.20;;;;;;6277350;22;20000;-80
2022/05/15 05:03:58;;;;;;;4.22;3.22;;;21.80;78.10;;;;;;6277837;22;20003;-81
2022/05/15 05:06:26;;;;;;;4.35;3.95;;;21.80;78.00;;;;;;6277195;22;20000;-82
2022/05/15 05:08:52;;;;;;;3.97;3.58;;;21.80;77.90;;;;;;6277412;22;20034;-82
2022/05/15 05:11:19;;;;;;;4.70;3.47;;;21.90;77.70;;;;;;6277057;22;20000;-82
2022/05/15 05:13:44;;;;;;;5.28;3.13;;;21.90;76.90;;;;;;6277553;22;20125;-82
2022/05/15 05:16:10;;;;;;;3.15;2.85;;;21.90;76.80;;;;;;6276964;22;20050;-85
2022/05/15 05:18:36;;;;;;;3.80;3.17;;;22.00;76.80;;;;;;6277085;22;20000;-86
2022/05/15 05:21:02;;;;;;;3.45;3.15;;;21.90;75.70;;;;;;6277711;22;20053;-87
2022/05/15 05:23:28;;;;;;;4.43;2.90;;;21.90;75.30;;;;;;6276238;22;20088;-81
2022/05/15 05:25:54;;;;;;;4.43;4.00;;;21.90;75.60;;;;;;6273360;22;20027;-81
2022/05/15 05:28:20;;;;;;;6.93;5.18;;;21.90;75.00;;;;;;6275426;22;20445;-82
2022/05/15 05:30:46;;;;;;;3.42;3.13;;;21.60;75.10;;;;;;6276600;22;20053;-81
2022/05/15 05:33:12;;;;;;;4.47;2.90;;;21.70;75.90;;;;;;6277539;22;20006;-81
2022/05/15 05:35:38;;;;;;;3.60;3.00;;;21.80;75.90;;;;;;6275866;22;20007;-81
2022/05/15 05:38:05;;;;;;;5.00;3.03;;;21.90;75.70;;;;;;6276911;22;20119;-81
2022/05/15 05:40:31;;;;;;;3.20;2.40;;;22.00;75.30;;;;;;6277373;22;20049;-83
2022/05/15 05:42:57;;;;;;;5.30;3.38;;;22.20;75.30;;;;;;6276626;22;20007;-82
2022/05/15 05:45:23;;;;;;;2.90;2.60;;;22.30;74.80;;;;;;6276046;22;20062;-82
2022/05/15 05:47:50;;;;;;;3.50;2.25;;;22.30;74.50;;;;;;6275292;22;20057;-85
2022/05/15 05:50:18;;;;;;;3.13;2.83;;;22.40;74.20;;;;;;6250394;22;20034;-88
2022/05/15 05:52:44;;;;;;;4.57;2.65;;;22.50;73.60;;;;;;6276414;22;20059;-87
2022/05/15 05:55:13;;;;;;;3.10;2.83;;;22.40;73.30;;;;;;6276449;22;20057;-87
2022/05/15 05:57:40;;;;;;;3.30;2.65;;;22.40;73.20;;;;;;6275545;22;20000;-80
2022/05/15 06:00:08;;;;;;;3.38;2.58;;;22.40;73.40;;;;;;6276614;22;20034;-88
2022/05/15 06:02:34;;;;;;;2.97;2.67;;;22.40;73.50;;;;;;6276888;22;19996;-87
2022/05/15 06:05:06;;;;;;;4.57;2.90;;;22.40;73.50;;;;;;6248118;22;20057;-85
2022/05/15 06:07:33;;;;;;;3.97;2.60;;;22.50;73.30;;;;;;6277117;22;20000;-81
2022/05/15 06:10:01;;;;;;;4.20;2.70;;;22.50;73.80;;;;;;6275345;22;20271;-82
2022/05/15 06:12:26;;;;;;;2.45;2.25;;;22.50;73.40;;;;;;6276530;22;19999;-81
2022/05/15 06:14:53;;;;;;;2.80;2.50;;;22.50;73.60;;;;;;6276276;22;20071;-80
2022/05/15 06:17:24;;;;;;;3.10;2.80;;;22.60;73.60;;;;;;6248177;22;20011;-77
2022/05/15 06:19:51;;;;;;;4.47;3.08;;;22.60;73.50;;;;;;6275054;22;20079;-77
2022/05/15 06:22:17;;;;;;;2.92;2.47;;;22.70;73.40;;;;;;6274223;22;20000;-77
2022/05/15 06:24:43;;;;;;;3.78;2.22;;;22.70;73.20;;;;;;6275577;22;20000;-78
2022/05/15 06:27:10;;;;;;;3.50;2.25;;;22.80;73.30;;;;;;6276203;22;20030;-78
2022/05/15 06:29:37;;;;;;;2.60;2.40;;;22.90;73.40;;;;;;6250113;22;20004;-78
2022/05/15 06:32:04;;;;;;;3.70;2.80;;;22.90;73.20;;;;;;6276738;22;20065;-79
2022/05/15 06:34:30;;;;;;;3.25;2.33;;;23.00;73.00;;;;;;6275680;22;20003;-79
2022/05/15 06:36:55;;;;;;;2.63;2.17;;;23.10;72.90;;;;;;6249823;22;20014;-78
2022/05/15 06:39:21;;;;;;;4.10;2.38;;;23.10;72.50;;;;;;6276970;22;20377;-78
2022/05/15 06:41:50;;;;;;;3.35;2.13;;;23.10;72.10;;;;;;6275846;22;20304;-80
2022/05/15 06:44:19;;;;;;;2.78;2.28;;;23.10;71.90;;;;;;6247852;22;20019;-86
2022/05/15 06:46:46;;;;;;;3.58;2.35;;;23.10;71.80;;;;;;6275547;22;20007;-87
2022/05/15 06:49:13;;;;;;;4.57;2.33;;;23.20;71.60;;;;;;6248668;22;20054;-79
2022/05/15 06:51:39;;;;;;;4.43;2.20;;;23.20;71.30;;;;;;6275622;22;20003;-78
2022/05/15 06:54:06;;;;;;;2.65;2.00;;;23.30;71.30;;;;;;6275768;22;20000;-83
2022/05/15 06:59:16;;;;;;;2.72;2.13;;;23.30;71.20;;;;;;6275778;22;20014;-78
2022/05/15 07:01:42;;;;;;;2.58;2.22;;;23.40;71.20;;;;;;6275986;22;20075;-78
2022/05/15 07:04:07;;;;;;;3.00;2.42;;;23.40;71.20;;;;;;6275244;22;20045;-82
2022/05/15 07:06:34;;;;;;;2.10;1.90;;;23.50;71.00;;;;;;6274804;22;20006;-81
2022/05/15 07:09:00;;;;;;;2.67;2.40;;;23.50;70.70;;;;;;6248741;22;20003;-82
2022/05/15 07:11:26;;;;;;;2.38;2.17;;;23.50;70.50;;;;;;6248966;22;20014;-81
2022/05/15 07:13:52;;;;;;;2.90;2.03;;;23.60;70.50;;;;;;6274579;22;20008;-81
2022/05/15 07:16:18;;;;;;;6.68;2.63;;;23.60;70.20;;;;;;6268610;22;20007;-82
2022/05/15 07:18:43;;;;;;;3.08;1.95;;;23.60;69.00;;;;;;6275900;22;20053;-81
2022/05/15 07:21:09;;;;;;;3.28;1.88;;;23.60;69.80;;;;;;6275516;22;20050;-82
2022/05/15 07:23:35;;;;;;;1.98;1.85;;;23.70;69.80;;;;;;6249161;22;20042;-82
2022/05/15 07:26:02;;;;;;;2.45;2.10;;;23.80;69.60;;;;;;6275951;22;19999;-82
2022/05/15 07:28:28;;;;;;;3.08;1.67;;;23.80;68.80;;;;;;6249147;22;20015;-82
2022/05/15 07:30:54;;;;;;;4.00;2.35;;;23.80;69.00;;;;;;6276110;22;20082;-82
2022/05/15 07:33:21;;;;;;;3.28;2.08;;;23.90;68.10;;;;;;6275876;22;20027;-82
2022/05/15 07:35:48;;;;;;;4.00;2.10;;;23.90;68.70;;;;;;6275393;22;20026;-82
2022/05/15 07:38:15;;;;;;;2.08;1.77;;;24.00;68.30;;;;;;6275815;22;20478;-78
2022/05/15 07:40:42;;;;;;;2.35;1.90;;;24.10;68.40;;;;;;6275992;22;20334;-78
2022/05/15 07:43:09;;;;;;;2.05;1.80;;;24.10;67.90;;;;;;6276056;22;20422;-78
2022/05/15 07:45:35;;;;;;;3.10;2.05;;;24.20;67.60;;;;;;6247120;22;20011;-77
2022/05/15 07:48:01;;;;;;;2.10;1.85;;;24.20;67.10;;;;;;6275683;22;20004;-77
2022/05/15 07:50:27;;;;;;;2.42;1.77;;;24.30;67.30;;;;;;6275996;22;20394;-77
2022/05/15 07:52:52;;;;;;;2.78;1.80;;;24.30;67.30;;;;;;6248588;22;20004;-78
2022/05/15 07:55:18;;;;;;;4.55;2.35;;;24.30;67.30;;;;;;6275333;22;19999;-78
2022/05/15 07:57:44;;;;;;;1.80;1.70;;;24.40;66.60;;;;;;6275681;22;20076;-78
2022/05/15 08:00:13;;;;;;;1.58;1.48;;;24.50;67.30;;;;;;6276361;22;20049;-78
2022/05/15 08:02:40;;;;;;;2.75;2.33;;;24.50;66.70;;;;;;6275967;22;19996;-77
2022/05/15 08:08:03;;;;;;;4.50;2.00;;;24.60;65.70;;;;;;6275328;22;20014;-77
2022/05/15 08:10:35;;;;;;;3.75;1.63;;;24.60;64.90;;;;;;6275636;22;20081;-78
2022/05/15 08:13:02;;;;;;;1.92;1.50;;;24.70;65.20;;;;;;6275977;22;20007;-78
2022/05/15 08:15:28;;;;;;;3.00;1.83;;;24.80;65.30;;;;;;6274924;22;20058;-77
2022/05/15 08:17:54;;;;;;;3.25;2.20;;;24.80;65.00;;;;;;6275920;22;20000;-78
2022/05/15 08:25:50;;;;;;;2.63;2.22;;;25.00;65.10;;;;;;6273782;22;20448;-77
2022/05/15 08:28:16;;;;;;;2.45;1.60;;;25.10;65.20;;;;;;6274451;22;20008;-78
2022/05/15 08:30:42;;;;;;;3.22;1.80;;;25.20;64.30;;;;;;6276211;22;20050;-78
2022/05/15 08:33:11;;;;;;;2.10;1.90;;;25.20;63.60;;;;;;6275916;22;20491;-78
2022/05/15 08:35:37;;;;;;;4.13;2.40;;;25.30;62.50;;;;;;6275436;22;20092;-78
2022/05/15 08:38:03;;;;;;;2.35;1.88;;;25.30;63.40;;;;;;6248644;22;20004;-78
2022/05/15 08:41:00;;;;;;;2.13;1.90;;;25.30;63.40;;;;;;6275430;22;20030;-78
2022/05/15 08:43:41;;;;;;;2.35;1.70;;;25.40;63.00;;;;;;6268756;22;20027;-78
2022/05/15 08:46:17;;;;;;;2.97;1.75;;;25.50;62.40;;;;;;6275017;22;20377;-78
2022/05/15 08:48:43;;;;;;;2.55;1.65;;;25.60;63.60;;;;;;6274714;22;20075;-80
2022/05/15 08:51:12;;;;;;;3.78;2.10;;;25.70;63.20;;;;;;6272689;22;20034;-78
2022/05/15 08:53:43;;;;;;;1.75;1.65;;;25.80;62.60;;;;;;6275353;22;19995;-77
2022/05/15 08:56:13;;;;;;;2.78;2.00;;;25.90;63.10;;;;;;6274566;22;20089;-78
2022/05/15 08:58:52;;;;;;;2.28;2.00;;;26.00;63.80;;;;;;6276162;22;20270;-78
2022/05/15 09:01:29;;;;;;;2.13;1.92;;;26.00;61.90;;;;;;6249448;22;20007;-78
2022/05/15 09:03:55;;;;;;;1.90;1.70;;;26.10;62.70;;;;;;6278124;22;20002;-78
2022/05/15 09:06:36;;;;;;;1.95;1.70;;;26.20;62.60;;;;;;6276821;22;20004;-78
2022/05/15 09:09:26;;;;;;;1.70;1.55;;;26.30;62.90;;;;;;6243209;22;20057;-78
2022/05/15 09:12:02;;;;;;;2.63;1.92;;;26.40;61.80;;;;;;6277555;22;20007;-81
2022/05/15 09:15:05;;;;;;;3.15;1.90;;;26.40;62.10;;;;;;6277428;22;20014;-82
2022/05/15 09:17:37;;;;;;;2.50;1.90;;;26.50;61.00;;;;;;6276881;22;20011;-82
2022/05/15 09:20:26;;;;;;;2.38;1.90;;;26.60;61.70;;;;;;6277284;22;20004;-81
2022/05/15 09:23:00;;;;;;;2.53;2.03;;;26.80;63.10;;;;;;6275844;22;20038;-81
2022/05/15 09:25:26;;;;;;;3.55;2.08;;;26.90;62.60;;;;;;6277237;22;20007;-82
2022/05/15 09:28:12;;;;;;;3.33;2.10;;;27.00;62.50;;;;;;6278764;22;19996;-78
2022/05/15 09:30:42;;;;;;;3.22;2.03;;;27.20;62.40;;;;;;6274008;22;19996;-81
2022/05/15 09:33:27;;;;;;;2.83;2.00;;;27.30;62.20;;;;;;6248763;22;20016;-85
2022/05/15 09:36:27;;;;;;;2.42;1.83;;;27.40;61.70;;;;;;6275738;22;19999;-83
2022/05/15 09:39:38;;;;;;;2.22;2.03;;;27.60;61.30;;;;;;6274923;22;20002;-81
2022/05/15 09:45:07;;;;;;;4.50;2.60;;;27.40;57.50;;;;;;6276827;22;20057;-84
2022/05/15 09:47:39;;;;;;;3.00;2.38;;;27.40;57.00;;;;;;6275685;22;20007;-85
2022/05/15 09:50:09;;;;;;;2.78;2.15;;;27.30;57.40;;;;;;6276514;22;20004;-86
2022/05/15 09:52:42;;;;;;;2.55;2.17;;;27.30;57.90;;;;;;6275613;22;20000;-85
2022/05/15 09:55:15;;;;;;;5.28;1.90;;;27.30;56.40;;;;;;6275828;22;20042;-86
2022/05/15 09:57:54;;;;;;;3.30;1.85;;;27.40;58.20;;;;;;6249850;22;20003;-84
2022/05/15 10:00:22;;;;;;;4.25;2.78;;;27.50;59.50;;;;;;6276777;22;20003;-84
2022/05/15 10:02:54;;;;;;;5.35;2.30;;;27.60;56.30;;;;;;6276882;22;20000;-84
2022/05/15 10:05:27;;;;;;;2.25;1.90;;;27.70;57.40;;;;;;6276107;22;20011;-84
2022/05/15 10:08:01;;;;;;;1.85;1.70;;;27.90;58.20;;;;;;6277129;22;20034;-85
2022/05/15 10:10:37;;;;;;;4.90;1.85;;;28.00;59.50;;;;;;6276926;22;20079;-84
2022/05/15 10:13:21;;;;;;;6.05;3.30;;;28.30;59.70;;;;;;6276007;22;20003;-84
2022/05/15 10:15:50;;;;;;;3.70;2.95;;;28.30;55.50;;;;;;6276755;22;20028;-85
2022/05/15 10:18:23;;;;;;;3.17;2.05;;;28.30;56.00;;;;;;6276591;22;19995;-85
2022/05/15 10:20:52;;;;;;;2.20;2.00;;;28.30;57.80;;;;;;6276720;22;20053;-85
2022/05/15 10:23:28;;;;;;;4.10;2.28;;;28.50;57.70;;;;;;6276543;22;20002;-87
2022/05/15 10:25:59;;;;;;;2.10;1.90;;;28.60;57.90;;;;;;6276471;22;20004;-87
2022/05/15 10:28:28;;;;;;;3.13;2.20;;;28.80;58.30;;;;;;6276682;22;20003;-88
2022/05/15 10:31:17;;;;;;;2.90;1.90;;;29.00;58.00;;;;;;6276928;22;20515;-88
2022/05/15 10:33:47;;;;;;;4.10;2.38;;;29.10;58.40;;;;;;6250339;22;20369;-89
2022/05/15 10:36:32;;;;;;;2.65;1.98;;;29.30;58.10;;;;;;6248764;22;20011;-84
2022/05/15 10:39:21;;;;;;;1.95;1.85;;;29.40;58.50;;;;;;6274903;22;20007;-91
2022/05/15 10:42:04;;;;;;;5.90;2.90;;;29.50;58.30;;;;;;6276940;22;20426;-88
2022/05/15 10:44:54;;;;;;;3.17;2.17;;;29.60;56.30;;;;;;6243867;23;20454;-87
2022/05/15 10:47:32;;;;;;;2.97;2.33;;;29.70;57.40;;;;;;6245424;23;20356;-87
2022/05/15 10:50:24;;;;;;;5.13;2.58;;;29.80;57.60;;;;;;6244909;22;20000;-87
2022/05/15 10:52:50;;;;;;;2.42;2.03;;;29.90;56.40;;;;;;6246301;22;20081;-87
2022/05/15 10:58:34;;;;;;;2.50;2.10;;;30.20;57.40;;;;;;6245280;23;20139;-86
2022/05/15 11:01:21;;;;;;;3.15;2.03;;;30.30;55.80;;;;;;6243505;23;20453;-85
2022/05/15 11:04:08;;;;;;;3.92;2.10;;;30.50;55.20;;;;;;6242595;23;20004;-86
2022/05/15 11:06:52;;;;;;;2.15;1.90;;;30.70;55.20;;;;;;6245499;22;20434;-90
2022/05/15 11:09:27;;;;;;;2.55;1.90;;;30.90;55.10;;;;;;6246706;23;20089;-90
2022/05/15 11:12:04;;;;;;;2.08;1.73;;;31.10;55.00;;;;;;6247727;23;20399;-90
2022/05/15 11:14:39;;;;;;;3.40;2.35;;;31.20;54.60;;;;;;6248452;23;20050;-90
2022/05/15 11:17:11;;;;;;;2.95;2.05;;;31.40;52.80;;;;;;6249773;23;20012;-90
2022/05/15 11:19:44;;;;;;;2.80;2.30;;;31.50;53.40;;;;;;6249570;23;20027;-90
2022/05/15 11:22:34;;;;;;;2.17;1.98;;;31.70;53.30;;;;;;6249078;22;20060;-90
2022/05/15 11:25:06;;;;;;;2.75;2.10;;;31.80;52.00;;;;;;6250879;22;20004;-89
2022/05/15 11:27:39;;;;;;;2.90;1.80;;;32.00;53.30;;;;;;6245859;23;20000;-91
2022/05/15 11:30:13;;;;;;;3.17;1.95;;;32.30;52.80;;;;;;6246095;23;20001;-90
2022/05/15 11:33:00;;;;;;;7.28;2.13;;;32.60;51.80;;;;;;6246094;22;20308;-89
2022/05/15 11:35:31;;;;;;;3.42;2.53;;;32.80;50.60;;;;;;6243352;23;20012;-86
2022/05/15 11:37:56;;;;;;;3.63;2.13;;;33.10;51.00;;;;;;6245069;22;20026;-85
2022/05/15 11:40:28;;;;;;;3.70;2.30;;;33.30;49.80;;;;;;6244786;23;20040;-88
2022/05/15 11:42:55;;;;;;;3.15;1.98;;;33.60;49.20;;;;;;6243997;23;20366;-85
2022/05/15 11:45:30;;;;;;;2.28;1.95;;;33.90;48.60;;;;;;6245913;22;20000;-84
2022/05/15 11:48:01;;;;;;;2.72;2.35;;;34.10;48.10;;;;;;6244048;22;20012;-86
2022/05/15 11:50:37;;;;;;;4.38;2.13;;;34.30;48.00;;;;;;6237324;23;20008;-86
2022/05/15 11:53:13;;;;;;;7.28;2.60;;;34.50;46.60;;;;;;6243010;22;20000;-86
2022/05/15 11:55:45;;;;;;;4.28;2.17;;;34.70;47.20;;;;;;6243328;22;20008;-81
2022/05/15 11:58:26;;;;;;;3.00;2.35;;;34.80;47.30;;;;;;6243997;22;19996;-84
2022/05/15 12:01:09;;;;;;;3.33;2.45;;;35.00;46.60;;;;;;6240487;23;20437;-84
2022/05/15 12:03:43;;;;;;;2.65;2.15;;;35.00;44.90;;;;;;6244533;22;19997;-87
2022/05/15 12:06:12;;;;;;;2.88;2.15;;;35.00;45.00;;;;;;6242336;23;20008;-88
2022/05/15 12:08:39;;;;;;;3.30;2.55;;;35.00;45.20;;;;;;6244717;22;20004;-87
2022/05/15 12:11:33;;;;;;;3.40;2.03;;;35.00;44.80;;;;;;6244763;22;20004;-87
2022/05/15 12:14:25;;;;;;;3.53;2.22;;;34.90;44.80;;;;;;6244439;22;20004;-87
2022/05/15 12:17:04;;;;;;;4.68;2.67;;;35.00;44.00;;;;;;6243317;23;20008;-87
2022/05/15 12:19:37;;;;;;;3.03;2.72;;;35.00;44.00;;;;;;6242512;23;20377;-87
2022/05/15 12:22:08;;;;;;;3.15;2.50;;;35.00;43.50;;;;;;6243034;23;20058;-82
2022/05/15 12:24:37;;;;;;;2.67;2.40;;;35.00;43.40;;;;;;6244116;22;20026;-87
2022/05/15 12:27:20;;;;;;;4.90;2.65;;;35.10;44.50;;;;;;6243984;22;20000;-82
2022/05/15 12:29:49;;;;;;;3.55;2.80;;;35.20;43.80;;;;;;6245047;23;20000;-83
2022/05/15 12:32:41;;;;;;;3.87;2.50;;;35.20;43.40;;;;;;6244145;23;20122;-82
2022/05/15 12:35:21;;;;;;;3.95;2.75;;;35.30;42.40;;;;;;6233888;23;20030;-82
2022/05/15 12:38:11;;;;;;;3.03;2.40;;;35.40;42.00;;;;;;6246172;23;20016;-82
2022/05/15 12:40:59;;;;;;;4.90;2.15;;;35.40;42.70;;;;;;6245822;22;19996;-85
2022/05/15 12:43:30;;;;;;;2.58;2.38;;;35.40;41.80;;;;;;6243691;23;20046;-83
2022/05/15 12:45:57;;;;;;;2.47;2.15;;;35.40;41.20;;;;;;6244832;23;20018;-86
2022/05/15 12:48:24;;;;;;;2.90;2.35;;;35.50;42.40;;;;;;6244388;23;20008;-82
2022/05/15 12:50:56;;;;;;;2.70;1.80;;;35.50;40.50;;;;;;6243313;23;20004;-83
2022/05/15 12:53:29;;;;;;;3.20;2.20;;;35.50;41.70;;;;;;6246456;22;20030;-82
2022/05/15 12:56:15;;;;;;;2.20;1.95;;;35.50;41.40;;;;;;6244721;23;20035;-86
2022/05/15 12:58:43;;;;;;;2.33;1.90;;;35.50;41.00;;;;;;6246268;22;20019;-83
2022/05/15 13:01:12;;;;;;;2.00;1.80;;;35.50;40.90;;;;;;6244882;22;20079;-83
2022/05/15 13:03:43;;;;;;;3.08;1.70;;;35.40;39.70;;;;;;6246009;22;20027;-84
2022/05/15 13:06:10;;;;;;;2.70;1.70;;;35.40;39.10;;;;;;6247090;22;20032;-83
2022/05/15 13:08:51;;;;;;;3.15;1.65;;;35.30;39.60;;;;;;6246955;22;20011;-83
2022/05/15 13:11:42;;;;;;;3.25;1.63;;;35.40;39.10;;;;;;6246670;22;20034;-82
2022/05/15 13:14:19;;;;;;;1.80;1.50;;;35.30;39.60;;;;;;6246679;22;20071;-82
2022/05/15 13:16:49;;;;;;;2.55;1.80;;;35.30;39.40;;;;;;6247656;22;20427;-85
2022/05/15 13:19:20;;;;;;;3.05;1.80;;;35.30;39.80;;;;;;6247229;22;20019;-86
2022/05/15 13:21:53;;;;;;;3.45;2.03;;;35.30;39.00;;;;;;6247165;22;20315;-84